createdAt,value
2023-01-01T00:01:11.122Z,25.30
2023-01-01T00:08:12.817Z,16.02
2023-01-01T00:15:14.566Z,13.82
2023-01-01T00:22:52.855Z,17.95
2023-01-01T00:29:37.889Z,13.63
2023-01-01T00:36:39.578Z,8.65
2023-01-01T00:43:41.231Z,5.72
2023-01-01T00:50:42.943Z,7.35
2023-01-01T00:57:44.593Z,8.95
2023-01-01T01:04:46.491Z,6.10
2023-01-01T01:11:48.186Z,3.30
2023-01-01T01:18:51.619Z,4.10
2023-01-01T01:25:53.258Z,4.45
2023-01-01T01:32:54.972Z,4.07
2023-01-01T01:39:56.687Z,3.75
2023-01-01T01:46:58.387Z,4.70
2023-01-01T01:54:02.341Z,3.60
2023-01-01T02:01:04.317Z,4.68
2023-01-01T02:08:06.297Z,5.03
2023-01-01T02:15:08.459Z,3.47
2023-01-01T02:22:15.194Z,4.03
2023-01-01T02:29:30.727Z,5.45
2023-01-01T02:36:33.205Z,3.90
2023-01-01T02:43:34.786Z,4.20
2023-01-01T02:50:36.584Z,6.80
2023-01-01T02:57:43.344Z,5.25
2023-01-01T03:05:01.457Z,3.47
2023-01-01T03:12:07.041Z,4.47
2023-01-01T03:19:12.090Z,4.97
2023-01-01T03:26:14.496Z,3.67
2023-01-01T03:33:18.867Z,3.67
2023-01-01T03:40:20.540Z,4.00
2023-01-01T03:47:22.176Z,3.70
2023-01-01T03:54:47.985Z,3.85
2023-01-01T04:01:53.718Z,4.15
2023-01-01T04:08:56.822Z,3.92
2023-01-01T04:15:58.531Z,4.20
2023-01-01T04:23:00.545Z,3.88
2023-01-01T04:30:02.245Z,4.10
2023-01-01T04:37:06.989Z,3.80
2023-01-01T04:44:12.973Z,4.20
2023-01-01T04:51:15.524Z,4.28
2023-01-01T04:58:17.564Z,3.50
2023-01-01T05:05:19.222Z,3.22
2023-01-01T05:12:20.900Z,3.60
2023-01-01T05:19:22.633Z,2.88
2023-01-01T05:26:27.107Z,3.08
2023-01-01T05:33:28.955Z,3.10
2023-01-01T05:40:30.959Z,3.50
2023-01-01T05:47:32.623Z,3.17
2023-01-01T05:54:34.288Z,3.05
2023-01-01T06:01:41.788Z,2.67
2023-01-01T06:08:54.081Z,2.88
2023-01-01T06:16:00.009Z,3.17
2023-01-01T06:23:01.676Z,3.25
2023-01-01T06:30:07.067Z,2.90
2023-01-01T06:37:08.802Z,3.10
2023-01-01T06:44:10.449Z,2.90
2023-01-01T06:51:15.583Z,3.35
2023-01-01T06:58:17.261Z,3.72
2023-01-01T07:05:18.929Z,2.90
2023-01-01T07:12:20.611Z,3.08
2023-01-01T07:19:22.243Z,3.35
2023-01-01T07:26:27.239Z,3.47
2023-01-01T07:33:28.844Z,3.45
2023-01-01T07:40:30.490Z,3.20
2023-01-01T07:47:32.919Z,3.25
2023-01-01T07:54:34.535Z,3.67
2023-01-01T08:01:37.371Z,3.00
2023-01-01T08:08:39.538Z,3.30
2023-01-01T08:15:41.312Z,3.53
2023-01-01T08:22:43.024Z,3.63
2023-01-01T08:29:44.812Z,3.50
2023-01-01T08:36:46.435Z,3.10
2023-01-01T08:43:48.169Z,3.45
2023-01-01T08:50:56.565Z,3.30
2023-01-01T08:57:58.298Z,3.30
2023-01-01T09:04:59.915Z,3.10
2023-01-01T09:12:05.801Z,3.70
2023-01-01T09:19:07.453Z,3.72
2023-01-01T09:26:09.689Z,3.53
2023-01-01T09:33:11.321Z,3.95
2023-01-01T09:40:31.712Z,4.05
2023-01-01T09:47:37.203Z,3.20
2023-01-01T09:54:41.333Z,3.13
2023-01-01T10:02:04.286Z,3.53
2023-01-01T10:09:32.614Z,3.15
2023-01-01T10:16:45.602Z,2.83
2023-01-01T10:24:02.777Z,2.78
2023-01-01T10:31:15.724Z,2.85
2023-01-01T10:38:24.738Z,3.00
2023-01-01T10:45:35.242Z,2.80
2023-01-01T10:52:39.715Z,2.92
2023-01-01T10:59:45.601Z,2.72
2023-01-01T11:06:51.754Z,2.40
2023-01-01T11:13:54.424Z,3.20
2023-01-01T11:20:56.765Z,4.20
2023-01-01T11:28:20.296Z,3.28
2023-01-01T11:35:23.830Z,4.75
2023-01-01T11:42:34.643Z,3.60
2023-01-01T11:49:37.050Z,2.58
2023-01-01T11:56:53.510Z,2.70
2023-01-01T12:04:08.225Z,2.88
2023-01-01T12:11:21.467Z,2.75
2023-01-01T12:18:37.484Z,2.55
2023-01-01T12:25:40.523Z,2.70
2023-01-01T12:33:07.829Z,2.50
2023-01-01T12:40:40.603Z,3.05
2023-01-01T12:47:59.367Z,2.75
2023-01-01T12:55:36.411Z,2.45
2023-01-01T13:02:38.182Z,2.83
2023-01-01T13:09:45.192Z,2.80
2023-01-01T13:16:50.559Z,4.18
2023-01-01T13:23:52.263Z,4.97
2023-01-01T13:30:53.975Z,5.90
2023-01-01T13:37:56.720Z,3.50
2023-01-01T13:44:58.365Z,3.90
2023-01-01T13:52:21.877Z,3.00
2023-01-01T13:59:46.037Z,2.97
2023-01-01T14:06:49.457Z,3.40
2023-01-01T14:13:51.123Z,3.10
2023-01-01T14:20:52.981Z,2.90
2023-01-01T14:27:55.353Z,3.25
2023-01-01T14:35:01.671Z,3.17
2023-01-01T14:42:15.421Z,3.45
2023-01-01T14:49:19.767Z,3.05
2023-01-01T14:56:30.298Z,3.30
2023-01-01T15:03:31.925Z,12.35
2023-01-01T15:10:35.279Z,3.85
2023-01-01T15:17:54.982Z,5.28
2023-01-01T15:24:56.986Z,4.80
2023-01-01T15:32:01.097Z,5.15
2023-01-01T15:39:02.803Z,4.03
2023-01-01T15:46:22.177Z,3.83
2023-01-01T15:53:31.782Z,4.53
2023-01-01T16:00:38.492Z,4.90
2023-01-01T16:07:40.122Z,4.20
2023-01-01T16:14:41.789Z,4.05
2023-01-01T16:21:43.467Z,7.00
2023-01-01T16:28:45.161Z,6.47
2023-01-01T16:35:47.088Z,4.88
2023-01-01T16:42:48.752Z,4.00
2023-01-01T16:49:50.421Z,4.40
2023-01-01T16:56:52.095Z,4.60
2023-01-01T17:03:53.849Z,3.88
2023-01-01T17:11:10.896Z,9.20
2023-01-01T17:18:13.459Z,5.00
2023-01-01T17:25:15.210Z,5.72
2023-01-01T17:32:16.882Z,5.40
2023-01-01T17:39:18.528Z,6.10
2023-01-01T17:46:22.177Z,6.85
2023-01-01T17:53:23.839Z,18.95
2023-01-01T18:00:25.442Z,10.30
2023-01-01T18:07:27.168Z,15.10
2023-01-01T18:14:28.952Z,9.70
2023-01-01T18:21:30.813Z,8.77
2023-01-01T18:28:32.825Z,8.07
2023-01-01T18:35:34.468Z,7.72
2023-01-01T18:42:43.707Z,7.57
2023-01-01T18:50:02.941Z,7.60
2023-01-01T18:57:07.608Z,7.10
2023-01-01T19:04:10.720Z,6.70
2023-01-01T19:11:12.575Z,6.93
2023-01-01T19:18:19.457Z,6.53
2023-01-01T19:25:37.104Z,6.47
2023-01-01T19:32:38.939Z,5.85
2023-01-01T19:39:40.638Z,4.25
2023-01-01T19:46:42.398Z,4.10
2023-01-01T19:53:44.172Z,3.50
2023-01-01T20:00:45.944Z,4.00
2023-01-01T20:07:47.658Z,4.10
2023-01-01T20:14:50.161Z,3.90
2023-01-01T20:22:10.627Z,3.65
2023-01-01T20:29:21.352Z,4.88
2023-01-01T20:36:41.537Z,5.10
2023-01-01T20:43:43.286Z,5.03
2023-01-01T20:50:44.977Z,4.05
2023-01-01T20:57:46.575Z,4.70
2023-01-01T21:04:48.445Z,4.43
2023-01-01T21:11:50.115Z,4.20
2023-01-01T21:18:51.827Z,4.07
2023-01-01T21:25:53.398Z,4.50
2023-01-01T21:32:54.975Z,4.32
2023-01-01T21:39:56.629Z,4.38
2023-01-01T21:47:01.788Z,3.22
2023-01-01T21:54:09.747Z,4.05
2023-01-01T22:01:20.468Z,4.22
2023-01-01T22:08:25.220Z,4.00
2023-01-01T22:15:35.310Z,4.47
2023-01-01T22:29:38.809Z,3.80
2023-01-01T22:36:40.477Z,3.35
2023-01-01T22:43:43.132Z,3.85
2023-01-01T22:50:44.987Z,3.92
2023-01-01T22:57:47.074Z,3.90
2023-01-01T23:04:48.691Z,3.90
2023-01-01T23:11:50.558Z,4.53
2023-01-01T23:18:52.268Z,4.00
2023-01-01T23:25:53.925Z,4.22
2023-01-01T23:32:55.623Z,3.80
2023-01-01T23:39:57.243Z,3.60
2023-01-01T23:46:59.241Z,3.95
2023-01-01T23:54:00.950Z,4.13
